createdAt,value
2023-09-02T00:01:46.867Z,100.00
2023-09-02T00:04:15.159Z,100.00
2023-09-02T00:06:43.037Z,100.00
2023-09-02T00:09:11.066Z,100.00
2023-09-02T00:11:39.125Z,100.00
2023-09-02T00:14:07.848Z,100.00
2023-09-02T00:16:35.670Z,100.00
2023-09-02T00:19:05.422Z,100.00
2023-09-02T00:21:34.056Z,100.00
2023-09-02T00:24:06.565Z,100.00
2023-09-02T00:26:34.828Z,100.00
2023-09-02T00:29:03.369Z,100.00
2023-09-02T00:31:31.480Z,100.00
2023-09-02T00:33:59.502Z,100.00
2023-09-02T00:36:31.892Z,100.00
2023-09-02T00:39:00.373Z,100.00
2023-09-02T00:41:33.762Z,100.00
2023-09-02T00:44:02.309Z,100.00
2023-09-02T00:46:30.450Z,100.00
2023-09-02T00:48:58.355Z,100.00
2023-09-02T00:51:28.960Z,100.00
2023-09-02T00:53:56.912Z,100.00
2023-09-02T00:56:26.246Z,100.00
2023-09-02T00:58:57.912Z,100.00
2023-09-02T01:01:26.746Z,100.00
2023-09-02T01:03:54.892Z,100.00
2023-09-02T01:06:24.030Z,100.00
2023-09-02T01:08:53.719Z,100.00
2023-09-02T01:11:21.614Z,100.00
2023-09-02T01:13:49.870Z,100.00
2023-09-02T01:16:18.000Z,100.00
2023-09-02T01:18:47.641Z,100.00
2023-09-02T01:21:34.173Z,100.00
2023-09-02T01:24:31.312Z,100.00
2023-09-02T01:27:13.874Z,100.00
2023-09-02T01:29:49.940Z,100.00
2023-09-02T01:32:19.872Z,100.00
2023-09-02T01:34:49.595Z,100.00
2023-09-02T01:37:19.637Z,100.00
2023-09-02T01:39:49.997Z,100.00
2023-09-02T01:42:19.903Z,100.00
2023-09-02T01:44:49.262Z,100.00
2023-09-02T01:47:17.456Z,100.00
2023-09-02T01:49:47.815Z,100.00
2023-09-02T01:52:17.520Z,100.00
2023-09-02T01:54:46.333Z,100.00
2023-09-02T01:57:14.941Z,100.00
2023-09-02T01:59:44.229Z,100.00
2023-09-02T02:02:12.127Z,100.00
2023-09-02T02:04:44.620Z,100.00
2023-09-02T02:07:16.323Z,100.00
2023-09-02T02:09:54.327Z,100.00
2023-09-02T02:12:23.652Z,100.00
2023-09-02T02:14:53.056Z,100.00
2023-09-02T02:17:20.936Z,100.00
2023-09-02T02:19:48.901Z,100.00
2023-09-02T02:22:17.413Z,100.00
2023-09-02T02:24:45.437Z,100.00
2023-09-02T02:27:14.648Z,100.00
2023-09-02T02:29:42.861Z,100.00
2023-09-02T02:32:12.123Z,100.00
2023-09-02T02:34:40.022Z,100.00
2023-09-02T02:37:07.995Z,100.00
2023-09-02T02:39:35.841Z,100.00
2023-09-02T02:42:03.922Z,100.00
2023-09-02T02:44:31.966Z,100.00
2023-09-02T02:46:59.849Z,100.00
2023-09-02T02:49:29.098Z,100.00
2023-09-02T02:51:57.931Z,100.00
2023-09-02T02:54:25.791Z,100.00
2023-09-02T02:56:53.660Z,100.00
2023-09-02T02:59:22.065Z,100.00
2023-09-02T03:01:52.118Z,100.00
2023-09-02T03:04:20.106Z,100.00
2023-09-02T03:06:49.227Z,100.00
2023-09-02T03:09:17.282Z,100.00
2023-09-02T03:11:45.289Z,100.00
2023-09-02T03:14:13.227Z,100.00
2023-09-02T03:16:41.209Z,100.00
2023-09-02T03:19:09.055Z,100.00
2023-09-02T03:21:36.992Z,100.00
2023-09-02T03:24:06.897Z,100.00
2023-09-02T03:26:34.744Z,100.00
2023-09-02T03:29:02.724Z,100.00
2023-09-02T03:31:30.748Z,100.00
2023-09-02T03:33:58.799Z,100.00
2023-09-02T03:36:26.780Z,100.00
2023-09-02T03:38:54.744Z,100.00
2023-09-02T03:41:24.653Z,100.00
2023-09-02T03:43:52.720Z,100.00
2023-09-02T03:46:22.112Z,100.00
2023-09-02T03:48:49.663Z,100.00
2023-09-02T03:51:18.168Z,100.00
2023-09-02T03:53:46.357Z,100.00
2023-09-02T03:56:14.631Z,100.00
2023-09-02T03:58:43.939Z,100.00
2023-09-02T04:01:13.159Z,100.00
2023-09-02T04:03:41.283Z,100.00
2023-09-02T04:06:09.310Z,100.00
2023-09-02T04:08:37.763Z,100.00
2023-09-02T04:11:05.675Z,100.00
2023-09-02T04:13:33.675Z,100.00
2023-09-02T04:16:03.720Z,100.00
2023-09-02T04:18:32.549Z,100.00
2023-09-02T04:21:03.480Z,100.00
2023-09-02T04:23:31.911Z,100.00
2023-09-02T04:26:00.319Z,100.00
2023-09-02T04:28:28.266Z,100.00
2023-09-02T04:30:56.953Z,100.00
2023-09-02T04:33:26.424Z,100.00
2023-09-02T04:35:54.695Z,100.00
2023-09-02T04:38:22.648Z,100.00
2023-09-02T04:40:50.524Z,100.00
2023-09-02T04:43:19.453Z,100.00
2023-09-02T04:45:47.578Z,100.00
2023-09-02T04:48:15.731Z,100.00
2023-09-02T04:50:44.997Z,100.00
2023-09-02T04:53:12.886Z,100.00
2023-09-02T04:55:41.361Z,100.00
2023-09-02T04:58:09.628Z,100.00
2023-09-02T05:00:38.645Z,100.00
2023-09-02T05:03:07.484Z,100.00
2023-09-02T05:05:35.989Z,100.00
2023-09-02T05:08:05.895Z,100.00
2023-09-02T05:10:33.813Z,100.00
2023-09-02T05:13:01.752Z,100.00
2023-09-02T05:15:29.824Z,100.00
2023-09-02T05:17:58.948Z,100.00
2023-09-02T05:20:27.154Z,100.00
2023-09-02T05:22:55.321Z,100.00
2023-09-02T05:25:24.751Z,100.00
2023-09-02T05:27:52.665Z,100.00
2023-09-02T05:30:20.493Z,100.00
2023-09-02T05:32:48.563Z,100.00
2023-09-02T05:35:16.939Z,100.00
2023-09-02T05:37:45.011Z,100.00
2023-09-02T05:40:13.468Z,100.00
2023-09-02T05:42:43.210Z,100.00
2023-09-02T05:45:11.528Z,100.00
2023-09-02T05:47:39.509Z,100.00
2023-09-02T05:50:08.323Z,100.00
2023-09-02T05:52:36.248Z,100.00
2023-09-02T05:55:04.436Z,100.00
2023-09-02T05:57:33.372Z,100.00
2023-09-02T06:00:04.472Z,100.00
2023-09-02T06:02:34.523Z,100.00
2023-09-02T06:05:03.071Z,100.00
2023-09-02T06:07:31.022Z,100.00
2023-09-02T06:09:58.924Z,100.00
2023-09-02T06:12:27.007Z,100.00
2023-09-02T06:14:57.626Z,100.00
2023-09-02T06:17:31.708Z,100.00
2023-09-02T06:20:00.311Z,100.00
2023-09-02T06:22:28.471Z,100.00
2023-09-02T06:24:56.651Z,100.00
2023-09-02T06:27:24.619Z,100.00
2023-09-02T06:29:52.538Z,100.00
2023-09-02T06:32:22.074Z,100.00
2023-09-02T06:34:54.657Z,100.00
2023-09-02T06:37:22.978Z,100.00
2023-09-02T06:39:54.187Z,100.00
2023-09-02T06:42:22.186Z,100.00
2023-09-02T06:44:54.815Z,100.00
2023-09-02T06:47:22.989Z,100.00
2023-09-02T06:49:52.761Z,100.00
2023-09-02T06:52:20.659Z,100.00
2023-09-02T06:54:50.205Z,100.00
2023-09-02T06:57:18.082Z,100.00
2023-09-02T06:59:45.890Z,100.00
2023-09-02T07:02:13.833Z,100.00
2023-09-02T07:04:41.808Z,100.00
2023-09-02T07:07:11.083Z,100.00
2023-09-02T07:09:39.031Z,100.00
2023-09-02T07:12:07.435Z,100.00
2023-09-02T07:14:35.376Z,100.00
2023-09-02T07:17:03.235Z,100.00
2023-09-02T07:19:31.034Z,100.00
2023-09-02T07:21:59.032Z,100.00
2023-09-02T07:24:29.978Z,100.00
2023-09-02T07:26:57.974Z,100.00
2023-09-02T07:29:25.987Z,100.00
2023-09-02T07:31:53.841Z,100.00
2023-09-02T07:34:21.785Z,100.00
2023-09-02T07:36:49.667Z,100.00
2023-09-02T07:39:17.929Z,100.00
2023-09-02T07:41:47.716Z,100.00
2023-09-02T07:44:16.203Z,100.00
2023-09-02T07:46:44.194Z,100.00
2023-09-02T07:49:12.004Z,100.00
2023-09-02T07:51:40.128Z,100.00
2023-09-02T07:54:08.025Z,100.00
2023-09-02T07:56:35.917Z,100.00
2023-09-02T07:59:06.719Z,100.00
2023-09-02T08:01:34.980Z,100.00
2023-09-02T08:04:05.237Z,100.00
2023-09-02T08:06:33.434Z,100.00
2023-09-02T08:09:01.270Z,100.00
2023-09-02T08:11:29.379Z,100.00
2023-09-02T08:13:57.268Z,100.00
2023-09-02T08:16:26.558Z,100.00
2023-09-02T08:18:54.380Z,100.00
2023-09-02T08:21:22.370Z,100.00
2023-09-02T08:23:50.333Z,100.00
2023-09-02T08:26:18.169Z,100.00
2023-09-02T08:28:46.747Z,100.00
2023-09-02T08:31:17.965Z,100.00
2023-09-02T08:33:47.248Z,100.00
2023-09-02T08:36:18.492Z,100.00
2023-09-02T08:38:46.579Z,100.00
2023-09-02T08:41:24.378Z,100.00
2023-09-02T08:43:55.165Z,100.00
2023-09-02T08:46:26.278Z,100.00
2023-09-02T08:48:57.833Z,100.00
2023-09-02T08:51:27.252Z,100.00
2023-09-02T08:53:57.113Z,100.00
2023-09-02T08:56:25.708Z,100.00
2023-09-02T08:58:55.462Z,100.00
2023-09-02T09:01:25.267Z,100.00
2023-09-02T09:03:57.210Z,100.00
2023-09-02T09:06:26.489Z,100.00
2023-09-02T09:08:58.229Z,100.00
2023-09-02T09:11:29.010Z,100.00
2023-09-02T09:14:00.401Z,100.00
2023-09-02T09:16:32.607Z,100.00
2023-09-02T09:19:05.291Z,100.00
2023-09-02T09:21:33.244Z,100.00
2023-09-02T09:24:01.203Z,100.00
2023-09-02T09:26:30.149Z,100.00
2023-09-02T09:28:59.559Z,100.00
2023-09-02T09:31:29.478Z,100.00
2023-09-02T09:33:59.929Z,100.00
2023-09-02T09:36:31.160Z,100.00
2023-09-02T09:39:00.562Z,100.00
2023-09-02T09:41:29.762Z,100.00
2023-09-02T09:44:05.853Z,100.00
2023-09-02T09:46:35.339Z,100.00
2023-09-02T09:49:03.535Z,100.00
2023-09-02T09:51:32.816Z,100.00
2023-09-02T09:54:00.839Z,100.00
2023-09-02T09:56:28.917Z,100.00
2023-09-02T09:58:57.412Z,100.00
2023-09-02T10:01:26.812Z,100.00
2023-09-02T10:03:56.342Z,100.00
2023-09-02T10:06:24.310Z,100.00
2023-09-02T10:08:55.102Z,100.00
2023-09-02T10:11:24.622Z,100.00
2023-09-02T10:13:53.934Z,100.00
2023-09-02T10:16:23.655Z,100.00
2023-09-02T10:18:51.937Z,100.00
2023-09-02T10:21:20.510Z,100.00
2023-09-02T10:23:56.516Z,100.00
2023-09-02T10:26:34.073Z,100.00
2023-09-02T10:29:02.418Z,100.00
2023-09-02T10:31:34.379Z,100.00
2023-09-02T10:34:08.982Z,100.00
2023-09-02T10:36:41.691Z,100.00
2023-09-02T10:39:15.133Z,100.00
2023-09-02T10:41:47.873Z,100.00
2023-09-02T10:44:18.164Z,100.00
2023-09-02T10:46:47.366Z,100.00
2023-09-02T10:49:15.242Z,100.00
2023-09-02T10:51:44.312Z,100.00
2023-09-02T10:54:11.142Z,100.00
2023-09-02T10:56:39.013Z,100.00
2023-09-02T10:59:09.655Z,100.00
2023-09-02T11:01:45.611Z,100.00
2023-09-02T11:04:13.738Z,100.00
2023-09-02T11:07:15.032Z,100.00
2023-09-02T11:09:53.253Z,100.00
2023-09-02T11:12:21.148Z,100.00
2023-09-02T11:15:19.747Z,100.00
2023-09-02T11:17:47.898Z,100.00
2023-09-02T11:20:20.171Z,100.00
2023-09-02T11:23:00.775Z,100.00
2023-09-02T11:25:39.703Z,99.94
2023-09-02T11:28:08.738Z,97.79
2023-09-02T11:30:39.879Z,96.77
2023-09-02T11:33:08.734Z,96.23
2023-09-02T11:35:37.884Z,96.46
2023-09-02T11:38:18.732Z,97.64
2023-09-02T11:40:46.512Z,98.13
2023-09-02T11:43:20.172Z,97.98
2023-09-02T11:45:50.304Z,94.43
2023-09-02T11:48:18.237Z,95.73
2023-09-02T11:50:46.226Z,93.69
2023-09-02T11:53:14.096Z,93.75
2023-09-02T11:55:42.089Z,90.71
2023-09-02T11:58:11.535Z,90.94
2023-09-02T12:00:44.199Z,92.57
2023-09-02T12:03:16.172Z,91.77
2023-09-02T12:05:51.392Z,94.18
2023-09-02T12:08:19.702Z,94.81
2023-09-02T12:10:48.752Z,95.64
2023-09-02T12:13:17.890Z,95.72
2023-09-02T12:15:49.937Z,94.70
2023-09-02T12:18:19.768Z,96.02
2023-09-02T12:20:48.229Z,95.75
2023-09-02T12:23:17.156Z,95.42
2023-09-02T12:26:04.417Z,97.29
2023-09-02T12:28:32.434Z,94.34
2023-09-02T12:31:00.310Z,94.54
2023-09-02T12:33:29.882Z,92.42
2023-09-02T12:35:57.874Z,91.00
2023-09-02T12:38:25.664Z,91.58
2023-09-02T12:40:54.140Z,92.42
2023-09-02T12:43:27.881Z,91.93
2023-09-02T12:45:56.350Z,90.24
2023-09-02T12:48:24.542Z,89.45
2023-09-02T12:50:53.791Z,90.53
2023-09-02T12:53:23.990Z,90.57
2023-09-02T12:55:53.020Z,90.97
2023-09-02T12:58:21.064Z,88.74
2023-09-02T13:00:48.943Z,83.96
2023-09-02T13:03:17.014Z,82.97
2023-09-02T13:05:45.143Z,82.72
2023-09-02T13:08:14.461Z,76.88
2023-09-02T13:10:42.467Z,75.80
2023-09-02T13:13:10.319Z,75.65
2023-09-02T13:15:38.119Z,78.65
2023-09-02T13:18:06.405Z,78.51
2023-09-02T13:20:37.030Z,79.41
2023-09-02T13:23:06.576Z,81.37
2023-09-02T13:25:35.766Z,82.14
2023-09-02T13:28:03.710Z,81.33
2023-09-02T13:30:31.591Z,78.98
2023-09-02T13:33:01.079Z,79.46
2023-09-02T13:35:29.870Z,82.10
2023-09-02T13:38:00.828Z,78.80
2023-09-02T13:40:37.889Z,74.24
2023-09-02T13:43:08.072Z,75.30
2023-09-02T13:45:38.753Z,76.11
2023-09-02T13:48:08.958Z,75.53
2023-09-02T13:50:38.874Z,76.08
2023-09-02T13:53:07.176Z,76.43
2023-09-02T13:55:40.728Z,77.58
2023-09-02T13:58:11.900Z,77.26
2023-09-02T14:00:43.291Z,79.01
2023-09-02T14:03:19.483Z,81.31
2023-09-02T14:05:48.802Z,84.87
2023-09-02T14:08:18.951Z,88.04
2023-09-02T14:10:49.264Z,87.87
2023-09-02T14:13:18.395Z,87.38
2023-09-02T14:15:47.418Z,88.07
2023-09-02T14:18:15.440Z,86.64
2023-09-02T14:20:43.305Z,85.39
2023-09-02T14:23:11.432Z,84.50
2023-09-02T14:25:39.297Z,82.61
2023-09-02T14:28:08.601Z,81.63
2023-09-02T14:30:36.966Z,83.76
2023-09-02T14:33:07.891Z,83.34
2023-09-02T14:35:36.231Z,82.97
2023-09-02T14:38:04.476Z,82.96
2023-09-02T14:40:32.443Z,82.92
2023-09-02T14:43:00.256Z,83.84
2023-09-02T14:45:32.060Z,84.07
2023-09-02T14:48:00.044Z,92.35
2023-09-02T14:50:28.628Z,97.48
2023-09-02T14:52:56.756Z,100.00
2023-09-02T14:55:24.770Z,100.00
2023-09-02T14:57:53.952Z,100.00
2023-09-02T15:00:21.946Z,100.00
2023-09-02T15:02:51.314Z,100.00
2023-09-02T15:05:20.699Z,100.00
2023-09-02T15:07:48.742Z,100.00
2023-09-02T15:10:24.785Z,100.00
2023-09-02T15:12:53.161Z,100.00
2023-09-02T15:15:25.119Z,100.00
2023-09-02T15:17:55.911Z,100.00
2023-09-02T15:20:27.001Z,100.00
2023-09-02T15:22:57.544Z,100.00
2023-09-02T15:25:27.198Z,100.00
2023-09-02T15:27:56.292Z,100.00
2023-09-02T15:30:29.879Z,100.00
2023-09-02T15:33:02.213Z,100.00
2023-09-02T15:35:31.575Z,100.00
2023-09-02T15:38:01.157Z,100.00
2023-09-02T15:40:31.655Z,100.00
2023-09-02T15:43:01.135Z,100.00
2023-09-02T15:45:29.888Z,100.00
2023-09-02T15:48:01.874Z,100.00
2023-09-02T15:50:31.356Z,100.00
2023-09-02T15:52:59.526Z,100.00
2023-09-02T15:55:27.777Z,100.00
2023-09-02T15:57:57.552Z,100.00
2023-09-02T16:00:25.896Z,100.00
2023-09-02T16:02:54.102Z,100.00
2023-09-02T16:05:23.439Z,100.00
2023-09-02T16:07:52.097Z,100.00
2023-09-02T16:10:20.568Z,100.00
2023-09-02T16:12:48.920Z,100.00
2023-09-02T16:15:17.893Z,100.00
2023-09-02T16:17:46.508Z,100.00
2023-09-02T16:20:14.974Z,100.00
2023-09-02T16:22:44.322Z,100.00
2023-09-02T16:25:13.306Z,100.00
2023-09-02T16:27:41.650Z,100.00
2023-09-02T16:30:19.497Z,100.00
2023-09-02T16:32:47.637Z,100.00
2023-09-02T16:35:19.098Z,100.00
2023-09-02T16:37:49.031Z,100.00
2023-09-02T16:40:17.039Z,100.00
2023-09-02T16:42:46.207Z,100.00
2023-09-02T16:45:15.740Z,100.00
2023-09-02T16:47:46.576Z,100.00
2023-09-02T16:50:15.589Z,100.00
2023-09-02T16:52:45.229Z,100.00
2023-09-02T16:55:17.926Z,100.00
2023-09-02T16:57:48.124Z,100.00
2023-09-02T17:00:18.066Z,100.00
2023-09-02T17:02:47.788Z,100.00
2023-09-02T17:05:18.284Z,100.00
2023-09-02T17:07:47.695Z,100.00
2023-09-02T17:10:21.600Z,100.00
2023-09-02T17:12:52.452Z,100.00
2023-09-02T17:15:23.124Z,100.00
2023-09-02T17:17:55.592Z,100.00
2023-09-02T17:20:35.825Z,100.00
2023-09-02T17:23:08.937Z,100.00
2023-09-02T17:25:39.041Z,100.00
2023-09-02T17:28:09.215Z,100.00
2023-09-02T17:30:39.053Z,100.00
2023-09-02T17:33:07.143Z,100.00
2023-09-02T17:35:50.417Z,100.00
2023-09-02T17:38:20.473Z,100.00
2023-09-02T17:40:50.995Z,100.00
2023-09-02T17:43:19.062Z,100.00
2023-09-02T17:45:47.263Z,100.00
2023-09-02T17:48:15.610Z,100.00
2023-09-02T17:50:46.992Z,100.00
2023-09-02T17:53:14.998Z,100.00
2023-09-02T17:55:43.266Z,100.00
2023-09-02T17:58:13.278Z,100.00
2023-09-02T18:00:41.578Z,100.00
2023-09-02T18:03:09.669Z,100.00
2023-09-02T18:05:37.640Z,100.00
2023-09-02T18:08:06.266Z,100.00
2023-09-02T18:10:34.493Z,100.00
2023-09-02T18:13:02.326Z,100.00
2023-09-02T18:15:35.102Z,100.00
2023-09-02T18:18:03.463Z,100.00
2023-09-02T18:20:31.553Z,100.00
2023-09-02T18:22:59.729Z,100.00
2023-09-02T18:25:27.578Z,100.00
2023-09-02T18:27:55.558Z,100.00
2023-09-02T18:30:23.824Z,100.00
2023-09-02T18:32:53.385Z,100.00
2023-09-02T18:35:23.603Z,100.00
2023-09-02T18:37:51.508Z,100.00
2023-09-02T18:40:19.469Z,100.00
2023-09-02T18:42:47.613Z,100.00
2023-09-02T18:45:17.398Z,100.00
2023-09-02T18:47:45.487Z,100.00
2023-09-02T18:50:15.101Z,100.00
2023-09-02T18:52:43.264Z,100.00
2023-09-02T18:55:20.138Z,100.00
2023-09-02T18:57:48.596Z,100.00
2023-09-02T19:00:17.108Z,100.00
2023-09-02T19:02:44.997Z,100.00
2023-09-02T19:05:14.415Z,100.00
2023-09-02T19:07:42.580Z,100.00
2023-09-02T19:10:11.717Z,100.00
2023-09-02T19:12:39.737Z,100.00
2023-09-02T19:15:08.397Z,100.00
2023-09-02T19:17:37.551Z,100.00
2023-09-02T19:20:08.155Z,100.00
2023-09-02T19:22:40.518Z,100.00
2023-09-02T19:25:13.321Z,100.00
2023-09-02T19:27:41.750Z,100.00
2023-09-02T19:30:10.208Z,100.00
2023-09-02T19:32:38.105Z,100.00
2023-09-02T19:35:10.844Z,100.00
2023-09-02T19:37:47.318Z,100.00
2023-09-02T19:40:18.109Z,100.00
2023-09-02T19:42:49.933Z,100.00
2023-09-02T19:45:18.403Z,100.00
2023-09-02T19:47:46.476Z,100.00
2023-09-02T19:50:17.750Z,100.00
2023-09-02T19:52:47.149Z,100.00
2023-09-02T19:55:15.424Z,100.00
2023-09-02T19:57:43.797Z,100.00
2023-09-02T20:00:13.169Z,100.00
2023-09-02T20:02:41.229Z,100.00
2023-09-02T20:05:10.996Z,100.00
2023-09-02T20:07:39.084Z,100.00
2023-09-02T20:10:11.714Z,100.00
2023-09-02T20:12:39.979Z,100.00
2023-09-02T20:15:08.423Z,100.00
2023-09-02T20:17:36.496Z,100.00
2023-09-02T20:20:05.178Z,100.00
2023-09-02T20:22:33.608Z,100.00
2023-09-02T20:25:01.650Z,100.00
2023-09-02T20:27:31.012Z,100.00
2023-09-02T20:29:58.912Z,100.00
2023-09-02T20:32:26.801Z,100.00
2023-09-02T20:34:55.766Z,100.00
2023-09-02T20:37:23.625Z,100.00
2023-09-02T20:39:52.147Z,100.00
2023-09-02T20:42:20.016Z,100.00
2023-09-02T20:44:51.233Z,100.00
2023-09-02T20:47:19.779Z,100.00
2023-09-02T20:49:50.834Z,100.00
2023-09-02T20:52:22.034Z,100.00
2023-09-02T20:54:53.626Z,100.00
2023-09-02T20:57:21.639Z,100.00
2023-09-02T20:59:53.286Z,100.00
2023-09-02T21:02:21.713Z,100.00
2023-09-02T21:04:50.660Z,100.00
2023-09-02T21:07:18.635Z,100.00
2023-09-02T21:09:47.808Z,100.00
2023-09-02T21:12:15.835Z,100.00
2023-09-02T21:14:43.776Z,100.00
2023-09-02T21:17:12.932Z,100.00
2023-09-02T21:19:40.854Z,100.00
2023-09-02T21:22:08.890Z,100.00
2023-09-02T21:24:36.683Z,100.00
2023-09-02T21:27:04.788Z,100.00
2023-09-02T21:29:33.308Z,100.00
2023-09-02T21:34:31.167Z,100.00
2023-09-02T21:36:59.011Z,100.00
2023-09-02T21:39:28.505Z,100.00
2023-09-02T21:41:56.364Z,100.00
2023-09-02T21:44:24.211Z,100.00
2023-09-02T21:46:54.287Z,100.00
2023-09-02T21:49:25.113Z,100.00
2023-09-02T21:51:54.603Z,100.00
2023-09-02T21:54:22.387Z,100.00
2023-09-02T21:56:50.212Z,100.00
2023-09-02T21:59:18.366Z,100.00
2023-09-02T22:01:46.270Z,100.00
2023-09-02T22:04:14.085Z,100.00
2023-09-02T22:06:41.890Z,100.00
2023-09-02T22:09:11.046Z,100.00
2023-09-02T22:11:38.888Z,100.00
2023-09-02T22:14:06.882Z,100.00
2023-09-02T22:16:34.691Z,100.00
2023-09-02T22:19:09.579Z,100.00
2023-09-02T22:21:39.500Z,100.00
2023-09-02T22:24:07.831Z,100.00
2023-09-02T22:26:36.938Z,100.00
2023-09-02T22:29:04.864Z,100.00
2023-09-02T22:31:32.695Z,100.00
2023-09-02T22:34:00.496Z,100.00
2023-09-02T22:36:28.390Z,100.00
2023-09-02T22:38:57.381Z,100.00
2023-09-02T22:41:25.445Z,100.00
2023-09-02T22:43:54.662Z,100.00
2023-09-02T22:46:22.557Z,100.00
2023-09-02T22:48:50.721Z,100.00
2023-09-02T22:51:18.999Z,100.00
2023-09-02T22:53:47.304Z,100.00
2023-09-02T22:56:17.358Z,100.00
2023-09-02T22:58:45.599Z,100.00
2023-09-02T23:01:15.039Z,100.00
2023-09-02T23:03:44.444Z,100.00
2023-09-02T23:06:14.170Z,100.00
2023-09-02T23:08:44.583Z,100.00
2023-09-02T23:11:12.467Z,100.00
2023-09-02T23:13:40.506Z,100.00
2023-09-02T23:16:08.508Z,100.00
2023-09-02T23:18:37.814Z,100.00
2023-09-02T23:21:12.618Z,100.00
2023-09-02T23:23:40.786Z,100.00
2023-09-02T23:26:08.695Z,100.00
2023-09-02T23:28:37.359Z,100.00
2023-09-02T23:31:05.591Z,100.00
2023-09-02T23:33:34.456Z,100.00
2023-09-02T23:36:04.970Z,100.00
2023-09-02T23:38:33.740Z,100.00
2023-09-02T23:41:02.596Z,100.00
2023-09-02T23:43:32.191Z,100.00
2023-09-02T23:46:00.918Z,100.00
2023-09-02T23:48:29.303Z,100.00
2023-09-02T23:50:58.986Z,100.00
2023-09-02T23:53:29.170Z,100.00
2023-09-02T23:55:58.199Z,100.00
2023-09-02T23:58:26.079Z,100.00
